createdAt,value
2023-02-04T00:01:29.837Z,96.51
2023-02-04T00:03:56.225Z,94.72
2023-02-04T00:06:22.842Z,94.60
2023-02-04T00:08:49.248Z,95.39
2023-02-04T00:11:15.694Z,95.80
2023-02-04T00:13:42.105Z,94.72
2023-02-04T00:16:08.732Z,92.40
2023-02-04T00:18:35.215Z,91.67
2023-02-04T00:21:01.919Z,92.21
2023-02-04T00:23:28.378Z,92.44
2023-02-04T00:25:54.785Z,90.51
2023-02-04T00:28:21.248Z,90.95
2023-02-04T00:30:47.686Z,91.22
2023-02-04T00:33:14.087Z,90.99
2023-02-04T00:35:42.894Z,90.23
2023-02-04T00:38:09.958Z,90.10
2023-02-04T00:40:37.325Z,90.63
2023-02-04T00:43:05.417Z,89.60
2023-02-04T00:45:32.004Z,89.65
2023-02-04T00:47:59.315Z,89.90
2023-02-04T00:50:25.808Z,89.54
2023-02-04T00:52:52.597Z,87.79
2023-02-04T00:55:19.291Z,87.08
2023-02-04T00:57:47.526Z,87.13
2023-02-04T01:00:15.483Z,86.17
2023-02-04T01:02:41.973Z,86.60
2023-02-04T01:05:09.240Z,87.19
2023-02-04T01:07:35.813Z,87.17
2023-02-04T01:10:03.474Z,87.24
2023-02-04T01:12:30.220Z,87.41
2023-02-04T01:14:56.971Z,87.80
2023-02-04T01:17:25.058Z,87.73
2023-02-04T01:19:53.490Z,88.78
2023-02-04T01:22:20.050Z,88.59
2023-02-04T01:24:46.819Z,88.97
2023-02-04T01:27:31.718Z,89.49
2023-02-04T01:29:58.194Z,89.35
2023-02-04T01:32:24.749Z,89.98
2023-02-04T01:34:52.068Z,90.17
2023-02-04T01:37:18.823Z,89.66
2023-02-04T01:39:45.311Z,90.49
2023-02-04T01:42:13.333Z,90.80
2023-02-04T01:44:40.194Z,90.75
2023-02-04T01:47:06.639Z,90.67
2023-02-04T01:49:33.239Z,91.12
2023-02-04T01:52:00.356Z,91.11
2023-02-04T01:54:27.315Z,91.09
2023-02-04T01:56:55.217Z,91.06
2023-02-04T01:59:23.214Z,91.41
2023-02-04T02:01:51.974Z,91.88
2023-02-04T02:04:23.642Z,91.96
2023-02-04T02:06:53.958Z,91.77
2023-02-04T02:09:20.960Z,92.19
2023-02-04T02:11:47.800Z,92.65
2023-02-04T02:14:14.415Z,92.52
2023-02-04T02:16:41.302Z,92.63
2023-02-04T02:19:12.224Z,93.14
2023-02-04T02:21:46.996Z,92.99
2023-02-04T02:24:26.156Z,93.14
2023-02-04T02:26:54.745Z,93.03
2023-02-04T02:29:24.696Z,93.00
2023-02-04T02:31:51.322Z,93.50
2023-02-04T02:34:17.896Z,93.92
2023-02-04T02:36:45.478Z,93.98
2023-02-04T02:39:11.980Z,93.09
2023-02-04T02:41:38.605Z,93.36
2023-02-04T02:44:05.402Z,93.43
2023-02-04T02:46:32.063Z,93.55
2023-02-04T02:48:58.533Z,93.06
2023-02-04T02:51:25.088Z,92.99
2023-02-04T02:53:52.038Z,93.41
2023-02-04T02:56:19.765Z,92.83
2023-02-04T02:58:46.658Z,92.69
2023-02-04T03:01:13.426Z,92.82
2023-02-04T03:03:46.822Z,92.05
2023-02-04T03:06:17.951Z,92.35
2023-02-04T03:08:44.939Z,92.18
2023-02-04T03:11:11.436Z,91.94
2023-02-04T03:13:38.542Z,91.88
2023-02-04T03:16:06.267Z,92.12
2023-02-04T03:18:32.881Z,92.14
2023-02-04T03:21:05.118Z,92.54
2023-02-04T03:23:33.882Z,92.30
2023-02-04T03:26:03.928Z,92.32
2023-02-04T03:28:31.551Z,92.72
2023-02-04T03:30:58.683Z,92.53
2023-02-04T03:33:31.492Z,91.74
2023-02-04T03:35:58.800Z,91.77
2023-02-04T03:38:25.261Z,90.77
2023-02-04T03:40:51.716Z,90.48
2023-02-04T03:43:18.111Z,88.95
2023-02-04T03:45:45.879Z,87.54
2023-02-04T03:48:12.699Z,86.81
2023-02-04T03:50:39.382Z,87.03
2023-02-04T03:53:05.926Z,86.20
2023-02-04T03:55:33.007Z,86.05
2023-02-04T03:57:59.810Z,84.01
2023-02-04T04:00:26.237Z,83.58
2023-02-04T04:02:52.688Z,83.22
2023-02-04T04:05:19.172Z,83.32
2023-02-04T04:07:45.726Z,83.78
2023-02-04T04:10:12.500Z,83.91
2023-02-04T04:12:39.009Z,84.80
2023-02-04T04:15:07.224Z,85.28
2023-02-04T04:17:33.734Z,85.89
2023-02-04T04:20:00.377Z,85.23
2023-02-04T04:22:27.429Z,84.86
2023-02-04T04:24:54.426Z,85.74
2023-02-04T04:27:21.306Z,86.67
2023-02-04T04:29:47.721Z,86.37
2023-02-04T04:32:14.135Z,87.12
2023-02-04T04:34:40.773Z,87.22
2023-02-04T04:37:07.162Z,88.04
2023-02-04T04:39:33.567Z,88.80
2023-02-04T04:42:00.089Z,89.12
2023-02-04T04:44:26.614Z,89.39
2023-02-04T04:46:53.183Z,89.81
2023-02-04T04:49:19.597Z,89.94
2023-02-04T04:51:46.023Z,90.21
2023-02-04T04:54:12.545Z,90.58
2023-02-04T04:56:38.951Z,90.77
2023-02-04T04:59:05.386Z,90.71
2023-02-04T05:01:31.907Z,90.64
2023-02-04T05:03:58.593Z,91.07
2023-02-04T05:06:25.418Z,91.29
2023-02-04T05:08:54.991Z,91.58
2023-02-04T05:11:21.757Z,91.53
2023-02-04T05:13:48.306Z,91.69
2023-02-04T05:16:15.168Z,91.91
2023-02-04T05:18:42.082Z,91.98
2023-02-04T05:21:08.566Z,92.35
2023-02-04T05:23:35.158Z,92.43
2023-02-04T05:26:01.837Z,92.38
2023-02-04T05:28:28.518Z,92.87
2023-02-04T05:30:54.962Z,92.61
2023-02-04T05:33:21.343Z,92.35
2023-02-04T05:35:49.852Z,92.64
2023-02-04T05:38:16.555Z,92.71
2023-02-04T05:40:42.946Z,92.84
2023-02-04T05:43:09.390Z,93.02
2023-02-04T05:45:35.879Z,93.45
2023-02-04T05:48:02.438Z,93.30
2023-02-04T05:50:28.968Z,93.57
2023-02-04T05:53:08.020Z,93.15
2023-02-04T05:55:34.732Z,92.81
2023-02-04T05:58:01.274Z,92.80
2023-02-04T06:00:27.756Z,93.17
2023-02-04T06:02:54.167Z,93.59
2023-02-04T06:05:20.851Z,93.75
2023-02-04T06:07:47.284Z,93.61
2023-02-04T06:10:13.671Z,94.34
2023-02-04T06:12:40.047Z,94.33
2023-02-04T06:15:07.142Z,94.30
2023-02-04T06:17:33.562Z,94.65
2023-02-04T06:20:00.044Z,94.69
2023-02-04T06:22:27.452Z,94.72
2023-02-04T06:24:53.987Z,94.74
2023-02-04T06:27:23.285Z,95.14
2023-02-04T06:29:53.901Z,94.70
2023-02-04T06:32:21.444Z,94.97
2023-02-04T06:34:47.869Z,95.12
2023-02-04T06:37:16.963Z,94.79
2023-02-04T06:39:43.731Z,94.34
2023-02-04T06:42:10.135Z,94.14
2023-02-04T06:44:36.717Z,94.71
2023-02-04T06:47:03.324Z,94.81
2023-02-04T06:49:29.790Z,94.87
2023-02-04T06:51:56.237Z,94.79
2023-02-04T06:54:22.630Z,95.34
2023-02-04T06:56:49.215Z,95.48
2023-02-04T06:59:15.619Z,95.33
2023-02-04T07:01:42.101Z,96.02
2023-02-04T07:04:08.605Z,96.18
2023-02-04T07:06:35.005Z,95.70
2023-02-04T07:09:02.361Z,95.27
2023-02-04T07:11:28.876Z,95.07
2023-02-04T07:13:55.299Z,95.22
2023-02-04T07:16:21.697Z,95.42
2023-02-04T07:18:48.104Z,95.57
2023-02-04T07:21:14.505Z,93.47
2023-02-04T07:23:41.148Z,93.28
2023-02-04T07:26:07.522Z,93.50
2023-02-04T07:28:36.902Z,94.03
2023-02-04T07:31:04.686Z,94.14
2023-02-04T07:33:31.178Z,94.95
2023-02-04T07:35:57.856Z,95.22
2023-02-04T07:38:24.355Z,95.65
2023-02-04T07:40:50.756Z,95.65
2023-02-04T07:43:17.244Z,95.65
2023-02-04T07:45:43.799Z,95.86
2023-02-04T07:48:10.872Z,95.82
2023-02-04T07:50:37.888Z,96.72
2023-02-04T07:53:04.302Z,96.89
2023-02-04T07:55:30.814Z,96.77
2023-02-04T07:57:57.414Z,96.35
2023-02-04T08:00:24.091Z,96.44
2023-02-04T08:02:51.036Z,96.90
2023-02-04T08:05:17.918Z,96.89
2023-02-04T08:07:44.432Z,96.87
2023-02-04T08:10:11.664Z,96.90
2023-02-04T08:12:38.194Z,96.85
2023-02-04T08:15:07.695Z,96.94
2023-02-04T08:17:34.480Z,96.96
2023-02-04T08:20:01.132Z,96.56
2023-02-04T08:22:27.823Z,96.61
2023-02-04T08:24:54.268Z,96.48
2023-02-04T08:27:20.758Z,96.55
2023-02-04T08:29:47.163Z,95.66
2023-02-04T08:32:13.558Z,95.61
2023-02-04T08:34:40.214Z,95.96
2023-02-04T08:37:06.596Z,95.79
2023-02-04T08:39:33.016Z,95.46
2023-02-04T08:41:59.747Z,95.35
2023-02-04T08:44:26.162Z,93.81
2023-02-04T08:46:52.620Z,94.10
2023-02-04T08:49:19.075Z,94.55
2023-02-04T08:51:46.146Z,94.81
2023-02-04T08:54:12.544Z,94.75
2023-02-04T08:56:38.941Z,94.41
2023-02-04T08:59:05.344Z,93.53
2023-02-04T09:01:31.743Z,93.42
2023-02-04T09:03:58.367Z,93.40
2023-02-04T09:06:24.881Z,93.75
2023-02-04T09:08:51.311Z,92.50
2023-02-04T09:11:17.738Z,93.14
2023-02-04T09:13:44.169Z,92.20
2023-02-04T09:16:10.816Z,92.06
2023-02-04T09:18:37.343Z,90.64
2023-02-04T09:21:04.109Z,91.09
2023-02-04T09:23:30.700Z,91.23
2023-02-04T09:25:57.281Z,91.36
2023-02-04T09:28:23.712Z,90.44
2023-02-04T09:30:50.171Z,86.19
2023-02-04T09:33:17.424Z,86.45
2023-02-04T09:35:43.998Z,86.08
2023-02-04T09:38:10.434Z,86.67
2023-02-04T09:40:42.733Z,85.24
2023-02-04T09:43:13.864Z,84.55
2023-02-04T09:45:40.643Z,84.12
2023-02-04T09:48:09.515Z,84.10
2023-02-04T09:50:37.046Z,83.04
2023-02-04T09:53:06.398Z,81.55
2023-02-04T09:55:37.400Z,80.91
2023-02-04T09:58:13.753Z,80.96
2023-02-04T10:00:40.171Z,81.33
2023-02-04T10:03:15.644Z,78.91
2023-02-04T10:05:42.605Z,78.66
2023-02-04T10:08:21.283Z,79.64
2023-02-04T10:10:49.508Z,79.65
2023-02-04T10:13:22.193Z,78.27
2023-02-04T10:15:51.465Z,78.49
2023-02-04T10:18:28.174Z,75.85
2023-02-04T10:21:13.996Z,75.77
2023-02-04T10:23:42.271Z,76.47
2023-02-04T10:26:12.339Z,75.46
2023-02-04T10:28:42.855Z,75.56
2023-02-04T10:31:33.594Z,75.71
2023-02-04T10:34:20.654Z,76.50
2023-02-04T10:36:49.683Z,76.81
2023-02-04T10:39:21.549Z,77.34
2023-02-04T10:41:58.872Z,76.77
2023-02-04T10:44:31.892Z,77.39
2023-02-04T10:47:17.331Z,77.86
2023-02-04T10:50:12.534Z,77.77
2023-02-04T10:52:41.833Z,77.28
2023-02-04T10:55:14.318Z,76.88
2023-02-04T10:57:42.501Z,76.43
2023-02-04T11:00:15.994Z,76.70
2023-02-04T11:03:03.747Z,76.39
2023-02-04T11:05:33.233Z,76.52
2023-02-04T11:08:25.038Z,76.23
2023-02-04T11:10:58.033Z,75.64
2023-02-04T11:13:43.403Z,74.13
2023-02-04T11:16:12.653Z,74.26
2023-02-04T11:18:49.542Z,72.40
2023-02-04T11:21:34.838Z,72.86
2023-02-04T11:24:16.433Z,71.51
2023-02-04T11:26:51.276Z,71.65
2023-02-04T11:29:34.655Z,71.26
2023-02-04T11:32:23.076Z,70.66
2023-02-04T11:34:52.868Z,70.49
2023-02-04T11:37:35.922Z,69.14
2023-02-04T11:40:20.091Z,68.29
2023-02-04T11:42:47.721Z,67.34
2023-02-04T11:45:16.152Z,67.13
2023-02-04T11:47:43.217Z,66.33
2023-02-04T11:50:22.049Z,66.81
2023-02-04T11:52:48.449Z,67.25
2023-02-04T11:55:14.926Z,65.93
2023-02-04T11:57:43.257Z,65.51
2023-02-04T12:00:17.835Z,64.96
2023-02-04T12:02:50.492Z,64.90
2023-02-04T12:05:19.396Z,65.22
2023-02-04T12:07:47.492Z,64.14
2023-02-04T12:10:16.763Z,64.42
2023-02-04T12:12:52.025Z,63.58
2023-02-04T12:15:36.210Z,62.53
2023-02-04T12:18:08.423Z,64.12
2023-02-04T12:20:36.470Z,65.21
2023-02-04T12:23:04.312Z,65.39
2023-02-04T12:25:31.770Z,65.18
2023-02-04T12:27:58.710Z,64.60
2023-02-04T12:30:26.530Z,64.94
2023-02-04T12:32:53.111Z,66.40
2023-02-04T12:35:19.884Z,67.53
2023-02-04T12:37:46.284Z,67.63
2023-02-04T12:40:18.965Z,66.45
2023-02-04T12:42:45.413Z,66.49
2023-02-04T12:45:13.801Z,67.54
2023-02-04T12:47:40.645Z,67.32
2023-02-04T12:50:08.532Z,66.86
2023-02-04T12:52:36.967Z,67.32
2023-02-04T12:55:05.314Z,66.12
2023-02-04T12:57:32.982Z,66.61
2023-02-04T13:00:01.353Z,66.07
2023-02-04T13:02:29.196Z,66.59
2023-02-04T13:04:56.843Z,67.57
2023-02-04T13:07:23.664Z,66.27
2023-02-04T13:09:50.085Z,65.84
2023-02-04T13:12:16.565Z,65.68
2023-02-04T13:14:43.441Z,64.87
2023-02-04T13:17:10.765Z,63.96
2023-02-04T13:19:37.330Z,63.68
2023-02-04T13:22:03.956Z,62.26
2023-02-04T13:24:30.464Z,62.86
2023-02-04T13:26:56.908Z,63.71
2023-02-04T13:29:23.336Z,63.41
2023-02-04T13:31:50.015Z,62.57
2023-02-04T13:34:16.500Z,63.39
2023-02-04T13:36:43.805Z,63.58
2023-02-04T13:39:10.903Z,63.18
2023-02-04T13:41:37.784Z,63.92
2023-02-04T13:44:05.260Z,63.67
2023-02-04T13:46:32.033Z,64.36
2023-02-04T13:48:58.913Z,65.13
2023-02-04T13:51:25.491Z,65.28
2023-02-04T13:53:52.026Z,65.56
2023-02-04T13:56:18.461Z,65.38
2023-02-04T13:58:45.448Z,65.87
2023-02-04T14:01:13.223Z,65.57
2023-02-04T14:03:40.309Z,66.17
2023-02-04T14:06:07.106Z,65.83
2023-02-04T14:08:33.596Z,66.04
2023-02-04T14:11:00.333Z,65.52
2023-02-04T14:13:27.317Z,65.29
2023-02-04T14:15:53.848Z,66.16
2023-02-04T14:18:20.905Z,66.73
2023-02-04T14:20:47.337Z,66.58
2023-02-04T14:23:13.788Z,66.44
2023-02-04T14:25:40.396Z,65.28
2023-02-04T14:28:07.440Z,66.46
2023-02-04T14:30:34.125Z,66.41
2023-02-04T14:33:01.361Z,65.18
2023-02-04T14:35:30.500Z,66.03
2023-02-04T14:37:57.076Z,65.87
2023-02-04T14:40:25.798Z,66.07
2023-02-04T14:42:52.472Z,66.26
2023-02-04T14:45:19.099Z,65.62
2023-02-04T14:47:45.510Z,65.92
2023-02-04T14:50:15.667Z,66.37
2023-02-04T14:52:42.354Z,66.60
2023-02-04T14:55:11.686Z,66.36
2023-02-04T14:57:38.893Z,67.49
2023-02-04T15:00:06.905Z,67.98
2023-02-04T15:02:33.370Z,68.69
2023-02-04T15:04:59.877Z,69.13
2023-02-04T15:07:26.292Z,68.83
2023-02-04T15:09:52.715Z,69.41
2023-02-04T15:12:19.143Z,68.91
2023-02-04T15:14:45.667Z,68.94
2023-02-04T15:17:12.900Z,68.98
2023-02-04T15:19:39.296Z,69.09
2023-02-04T15:22:05.706Z,69.17
2023-02-04T15:24:32.156Z,69.33
2023-02-04T15:26:58.898Z,68.84
2023-02-04T15:29:25.662Z,68.45
2023-02-04T15:31:52.251Z,69.22
2023-02-04T15:34:18.707Z,69.83
2023-02-04T15:36:45.148Z,69.07
2023-02-04T15:39:11.596Z,69.73
2023-02-04T15:41:38.088Z,69.84
2023-02-04T15:44:05.557Z,69.52
2023-02-04T15:46:32.907Z,69.78
2023-02-04T15:49:00.275Z,70.08
2023-02-04T15:51:26.786Z,69.34
2023-02-04T15:53:53.330Z,69.94
2023-02-04T15:56:19.774Z,70.14
2023-02-04T15:58:46.189Z,70.91
2023-02-04T16:01:14.636Z,70.92
2023-02-04T16:03:46.722Z,70.82
2023-02-04T16:06:13.147Z,71.02
2023-02-04T16:08:40.036Z,71.91
2023-02-04T16:11:06.608Z,72.18
2023-02-04T16:13:33.216Z,71.90
2023-02-04T16:15:59.721Z,72.01
2023-02-04T16:18:26.360Z,71.81
2023-02-04T16:20:52.811Z,72.00
2023-02-04T16:23:19.236Z,72.18
2023-02-04T16:25:45.608Z,72.32
2023-02-04T16:28:12.114Z,72.86
2023-02-04T16:30:39.299Z,72.73
2023-02-04T16:33:06.893Z,72.53
2023-02-04T16:36:03.776Z,73.24
2023-02-04T16:38:31.243Z,73.23
2023-02-04T16:40:58.127Z,72.14
2023-02-04T16:43:24.797Z,73.00
2023-02-04T16:45:51.889Z,73.92
2023-02-04T16:48:18.578Z,74.06
2023-02-04T16:50:45.024Z,74.50
2023-02-04T16:53:15.736Z,74.24
2023-02-04T16:55:43.483Z,74.86
2023-02-04T16:58:11.343Z,74.83
2023-02-04T17:00:41.736Z,74.74
2023-02-04T17:03:09.429Z,75.46
2023-02-04T17:05:36.191Z,75.51
2023-02-04T17:08:03.166Z,75.60
2023-02-04T17:10:48.451Z,75.35
2023-02-04T17:13:14.995Z,75.87
2023-02-04T17:15:41.505Z,75.48
2023-02-04T17:18:08.188Z,75.65
2023-02-04T17:20:34.819Z,75.97
2023-02-04T17:23:01.472Z,76.56
2023-02-04T17:25:27.971Z,76.36
2023-02-04T17:27:55.886Z,76.46
2023-02-04T17:30:22.518Z,76.27
2023-02-04T17:32:48.932Z,76.85
2023-02-04T17:35:17.224Z,77.12
2023-02-04T17:37:43.904Z,77.48
2023-02-04T17:40:13.027Z,77.37
2023-02-04T17:42:40.836Z,77.23
2023-02-04T17:45:10.552Z,77.57
2023-02-04T17:47:38.363Z,77.53
2023-02-04T17:50:07.665Z,77.57
2023-02-04T17:52:34.361Z,77.89
2023-02-04T17:55:02.207Z,78.25
2023-02-04T17:57:28.920Z,77.55
2023-02-04T17:59:55.480Z,77.72
2023-02-04T18:02:30.279Z,77.91
2023-02-04T18:05:05.618Z,78.74
2023-02-04T18:07:32.067Z,78.81
2023-02-04T18:10:19.042Z,79.05
2023-02-04T18:12:45.453Z,79.12
2023-02-04T18:15:29.574Z,79.56
2023-02-04T18:18:00.391Z,79.40
2023-02-04T18:20:27.433Z,79.47
2023-02-04T18:22:59.072Z,80.06
2023-02-04T18:25:25.669Z,79.70
2023-02-04T18:27:52.660Z,79.61
2023-02-04T18:30:22.066Z,80.11
2023-02-04T18:32:49.821Z,79.79
2023-02-04T18:35:31.477Z,79.95
2023-02-04T18:37:57.926Z,80.09
2023-02-04T18:40:30.833Z,80.67
2023-02-04T18:43:24.594Z,80.66
2023-02-04T18:45:51.755Z,80.64
2023-02-04T18:48:18.076Z,80.63
2023-02-04T18:50:46.569Z,80.85
2023-02-04T18:53:12.886Z,80.87
2023-02-04T18:55:40.540Z,80.78
2023-02-04T18:58:36.165Z,80.18
2023-02-04T19:01:04.379Z,80.27
2023-02-04T19:03:37.490Z,80.10
2023-02-04T19:06:16.857Z,80.43
2023-02-04T19:08:44.773Z,80.24
2023-02-04T19:11:33.955Z,80.93
2023-02-04T19:14:04.618Z,80.80
2023-02-04T19:16:36.634Z,80.48
2023-02-04T19:19:25.009Z,80.85
2023-02-04T19:21:51.781Z,81.12
2023-02-04T19:24:24.434Z,81.59
2023-02-04T19:26:56.232Z,80.76
2023-02-04T19:29:22.796Z,80.93
2023-02-04T19:31:52.825Z,81.33
2023-02-04T19:34:33.380Z,81.78
2023-02-04T19:37:00.365Z,81.38
2023-02-04T19:39:41.505Z,81.48
2023-02-04T19:42:35.024Z,81.54
2023-02-04T19:45:13.820Z,81.58
2023-02-04T19:47:44.953Z,81.60
2023-02-04T19:50:14.887Z,81.34
2023-02-04T19:52:48.309Z,81.58
2023-02-04T19:55:17.717Z,81.69
2023-02-04T19:57:49.726Z,81.86
2023-02-04T20:00:28.973Z,81.34
2023-02-04T20:02:57.540Z,81.64
2023-02-04T20:05:24.216Z,81.83
2023-02-04T20:07:50.617Z,82.17
2023-02-04T20:10:24.612Z,82.13
2023-02-04T20:12:55.623Z,82.67
2023-02-04T20:15:25.540Z,82.41
2023-02-04T20:17:52.814Z,82.34
2023-02-04T20:20:29.437Z,82.51
2023-02-04T20:22:58.313Z,81.90
2023-02-04T20:25:33.966Z,81.52
2023-02-04T20:28:11.579Z,82.00
2023-02-04T20:30:38.276Z,81.35
2023-02-04T20:33:28.367Z,81.49
2023-02-04T20:36:26.049Z,81.47
2023-02-04T20:39:16.767Z,80.93
2023-02-04T20:41:43.311Z,81.33
2023-02-04T20:44:16.815Z,81.57
2023-02-04T20:46:43.552Z,81.99
2023-02-04T20:49:23.708Z,82.26
2023-02-04T20:51:51.611Z,82.67
2023-02-04T20:54:18.670Z,83.12
2023-02-04T20:56:45.480Z,83.09
2023-02-04T20:59:11.911Z,82.64
2023-02-04T21:01:41.498Z,82.95
2023-02-04T21:04:17.107Z,82.49
2023-02-04T21:06:43.751Z,82.40
2023-02-04T21:09:22.559Z,82.23
2023-02-04T21:11:49.278Z,81.26
2023-02-04T21:14:15.675Z,81.43
2023-02-04T21:16:42.138Z,81.54
2023-02-04T21:19:10.000Z,81.78
2023-02-04T21:21:36.538Z,82.15
2023-02-04T21:24:04.290Z,82.13
2023-02-04T21:26:30.855Z,82.35
2023-02-04T21:28:57.229Z,82.38
2023-02-04T21:31:23.730Z,83.20
2023-02-04T21:33:50.172Z,83.35
2023-02-04T21:36:16.607Z,83.04
2023-02-04T21:38:43.058Z,83.18
2023-02-04T21:41:09.551Z,82.56
2023-02-04T21:43:36.036Z,82.82
2023-02-04T21:46:02.775Z,82.47
2023-02-04T21:48:29.348Z,82.93
2023-02-04T21:50:55.810Z,83.07
2023-02-04T21:53:22.528Z,83.27
2023-02-04T21:55:48.897Z,83.81
2023-02-04T21:58:15.320Z,83.28
2023-02-04T22:00:41.747Z,83.59
2023-02-04T22:03:12.874Z,84.01
2023-02-04T22:05:39.520Z,83.78
2023-02-04T22:08:06.092Z,84.03
2023-02-04T22:10:32.525Z,83.89
2023-02-04T22:12:59.288Z,83.83
2023-02-04T22:15:25.941Z,83.31
2023-02-04T22:17:53.655Z,83.71
2023-02-04T22:20:22.270Z,83.24
2023-02-04T22:22:49.441Z,83.44
2023-02-04T22:25:17.579Z,84.00
2023-02-04T22:27:44.189Z,84.09
2023-02-04T22:30:12.229Z,83.35
2023-02-04T22:32:39.398Z,83.45
2023-02-04T22:35:07.768Z,83.23
2023-02-04T22:37:35.296Z,83.87
2023-02-04T22:40:06.129Z,84.25
2023-02-04T22:42:32.747Z,84.76
2023-02-04T22:44:59.499Z,85.22
2023-02-04T22:47:25.963Z,85.15
2023-02-04T22:49:52.324Z,84.53
2023-02-04T22:52:18.741Z,84.49
2023-02-04T22:54:45.175Z,84.18
2023-02-04T22:57:11.686Z,85.16
2023-02-04T22:59:38.298Z,85.07
2023-02-04T23:02:04.840Z,85.52
2023-02-04T23:04:31.423Z,85.12
2023-02-04T23:06:58.116Z,85.31
2023-02-04T23:09:24.598Z,85.31
2023-02-04T23:11:51.078Z,85.76
2023-02-04T23:14:17.533Z,86.32
2023-02-04T23:16:44.102Z,85.97
2023-02-04T23:19:10.534Z,86.16
2023-02-04T23:21:37.109Z,86.32
2023-02-04T23:24:03.619Z,86.64
2023-02-04T23:26:30.030Z,86.63
2023-02-04T23:28:58.047Z,87.06
2023-02-04T23:31:24.680Z,86.58
2023-02-04T23:33:51.059Z,86.79
2023-02-04T23:36:17.496Z,87.07
2023-02-04T23:38:43.910Z,86.94
2023-02-04T23:41:10.330Z,87.01
2023-02-04T23:43:36.705Z,87.16
2023-02-04T23:46:03.529Z,87.31
2023-02-04T23:48:30.154Z,87.49
2023-02-04T23:50:59.590Z,87.38
2023-02-04T23:53:26.061Z,87.76
2023-02-04T23:55:52.538Z,87.27
2023-02-04T23:58:19.270Z,87.10
